createdAt,value
2023-03-06T00:34:37.717Z,3.17
2023-03-06T00:35:37.981Z,3.12
2023-03-06T00:36:38.001Z,3.12
2023-03-06T00:37:38.135Z,3.12
2023-03-06T00:38:38.269Z,3.07
2023-03-06T00:39:38.400Z,3.10
2023-03-06T00:40:38.534Z,3.12
2023-03-06T00:41:38.675Z,3.16
2023-03-06T01:39:47.940Z,3.18
2023-03-06T01:40:48.174Z,3.18
2023-03-06T01:41:48.417Z,3.20
2023-03-06T01:42:48.652Z,3.25
2023-03-06T02:31:57.849Z,3.02
2023-03-06T02:32:58.095Z,3.01
2023-03-06T02:33:58.306Z,3.00
2023-03-06T02:34:58.429Z,3.00
2023-03-06T02:35:58.671Z,3.01
2023-03-06T02:36:58.875Z,3.00
2023-03-06T02:37:59.111Z,2.89
2023-03-06T02:38:59.343Z,2.80
2023-03-06T02:39:59.535Z,2.85
2023-03-06T02:40:59.759Z,2.79
2023-03-06T02:42:00.001Z,2.75
2023-03-06T02:43:00.226Z,2.75
2023-03-06T02:44:00.461Z,2.64
2023-03-06T02:45:01.051Z,2.58
2023-03-06T02:46:00.872Z,2.52
2023-03-06T02:47:01.016Z,2.29
2023-03-06T02:48:01.356Z,2.29
2023-03-06T02:49:01.621Z,2.22
2023-03-06T02:50:01.826Z,2.22
2023-03-06T02:51:02.074Z,2.22
2023-03-06T02:52:02.336Z,2.26
2023-03-06T02:53:02.549Z,2.26
2023-03-06T02:54:02.775Z,2.31
2023-03-06T02:55:03.008Z,2.36
2023-03-06T02:56:03.256Z,2.44
2023-03-06T02:57:03.533Z,2.53
2023-03-06T02:58:03.739Z,2.51
2023-03-06T02:59:03.966Z,2.50
2023-03-06T03:00:04.208Z,2.48
2023-03-06T03:01:04.433Z,2.40
2023-03-06T03:02:04.687Z,2.08
2023-03-06T03:03:04.788Z,2.09
2023-03-06T03:04:05.097Z,2.12
2023-03-06T03:05:05.268Z,2.11
2023-03-06T03:06:05.504Z,2.09
2023-03-06T03:07:05.738Z,2.17
2023-03-06T03:08:05.943Z,2.20
2023-03-06T03:09:06.181Z,2.25
2023-03-06T03:10:06.423Z,2.30
2023-03-06T03:11:06.644Z,2.35
2023-03-06T03:12:06.849Z,2.38
2023-03-06T03:13:07.082Z,2.37
2023-03-06T03:14:07.292Z,2.39
2023-03-06T03:15:07.507Z,2.25
2023-03-06T03:16:07.816Z,2.12
2023-03-06T03:17:08.006Z,2.09
2023-03-06T03:18:08.162Z,2.10
2023-03-06T03:19:08.343Z,2.21
2023-03-06T03:20:08.531Z,2.15
2023-03-06T03:21:08.640Z,2.13
2023-03-06T03:22:08.820Z,2.12
2023-03-06T03:23:09.002Z,1.90
2023-03-06T03:24:09.192Z,1.83
2023-03-06T03:25:09.369Z,1.84
2023-03-06T03:26:09.448Z,1.91
2023-03-06T03:27:09.534Z,1.90
2023-03-06T03:28:09.622Z,2.00
2023-03-06T03:29:09.735Z,2.07
2023-03-06T03:30:09.836Z,2.14
2023-03-06T03:31:10.084Z,2.23
2023-03-06T03:32:10.161Z,2.19
2023-03-06T03:33:10.214Z,2.20
2023-03-06T03:34:10.298Z,2.13
2023-03-06T03:35:10.380Z,2.12
2023-03-06T03:36:10.453Z,2.01
2023-03-06T03:37:10.561Z,1.83
2023-03-06T03:38:10.679Z,1.83
2023-03-06T03:39:10.747Z,1.73
2023-03-06T03:40:10.855Z,1.75
2023-03-06T03:41:10.934Z,1.74
2023-03-06T03:42:11.098Z,1.45
2023-03-06T03:43:11.210Z,1.25
2023-03-06T03:44:11.326Z,1.21
2023-03-06T03:45:11.437Z,1.27
2023-03-06T03:46:11.586Z,1.42
2023-03-06T03:47:11.640Z,1.44
2023-03-06T03:48:11.857Z,1.42
2023-03-06T03:49:11.929Z,1.37
2023-03-06T03:50:12.038Z,1.38
2023-03-06T03:51:12.133Z,1.48
2023-03-06T03:52:12.232Z,1.59
2023-03-06T03:53:12.361Z,1.63
2023-03-06T03:54:12.468Z,1.71
2023-03-06T03:55:12.612Z,1.72
2023-03-06T03:56:12.737Z,1.73
2023-03-06T03:57:12.872Z,1.52
2023-03-06T03:58:13.010Z,1.42
2023-03-06T03:59:13.157Z,1.34
2023-03-06T04:00:13.284Z,1.38
2023-03-06T04:01:13.422Z,1.38
2023-03-06T04:02:13.601Z,1.36
2023-03-06T04:03:13.689Z,1.35
2023-03-06T04:04:13.834Z,1.28
2023-03-06T04:05:13.982Z,1.23
2023-03-06T04:06:14.060Z,1.28
2023-03-06T04:07:14.232Z,1.39
2023-03-06T04:08:14.407Z,1.46
2023-03-06T04:09:14.532Z,1.49
2023-03-06T04:10:14.649Z,1.51
2023-03-06T04:11:14.825Z,1.52
2023-03-06T04:12:14.986Z,1.52
2023-03-06T04:13:15.255Z,1.52
2023-03-06T04:14:15.416Z,1.54
2023-03-06T04:15:15.575Z,1.57
2023-03-06T04:16:15.827Z,1.61
2023-03-06T04:17:15.904Z,1.65
2023-03-06T04:18:16.080Z,1.75
2023-03-06T04:19:16.232Z,1.82
2023-03-06T04:20:16.382Z,1.90
2023-03-06T04:21:16.535Z,1.91
2023-03-06T04:22:16.747Z,1.84
2023-03-06T04:23:16.854Z,1.83
2023-03-06T04:24:17.005Z,1.83
2023-03-06T04:25:17.155Z,1.80
2023-03-06T04:26:17.300Z,1.82
2023-03-06T04:27:17.427Z,1.80
2023-03-06T04:28:17.541Z,1.79
2023-03-06T04:29:17.654Z,1.72
2023-03-06T04:30:17.755Z,1.74
2023-03-06T04:31:17.908Z,1.84
2023-03-06T04:32:20.301Z,1.90
2023-03-06T04:33:18.025Z,1.93
2023-03-06T04:34:18.124Z,1.99
2023-03-06T04:35:18.243Z,2.01
2023-03-06T04:36:19.303Z,1.94
2023-03-06T04:37:18.386Z,1.95
2023-03-06T04:38:18.505Z,1.83
2023-03-06T04:39:18.578Z,1.75
2023-03-06T04:40:18.668Z,1.78
2023-03-06T04:41:18.765Z,1.78
2023-03-06T04:42:18.853Z,1.78
2023-03-06T04:43:18.940Z,1.77
2023-03-06T04:44:19.047Z,1.73
2023-03-06T04:45:19.132Z,1.57
2023-03-06T04:46:19.264Z,1.57
2023-03-06T04:47:19.445Z,1.59
2023-03-06T04:48:19.473Z,1.64
2023-03-06T04:49:19.609Z,1.68
2023-03-06T04:50:19.759Z,1.75
2023-03-06T04:51:19.913Z,1.75
2023-03-06T04:52:20.034Z,1.76
2023-03-06T04:53:20.173Z,1.76
2023-03-06T04:54:20.292Z,1.82
2023-03-06T04:55:20.413Z,1.86
2023-03-06T04:56:20.534Z,1.92
2023-03-06T04:57:20.642Z,1.78
2023-03-06T04:58:20.758Z,1.78
2023-03-06T04:59:20.867Z,1.74
2023-03-06T05:00:21.058Z,1.71
2023-03-06T05:01:21.304Z,1.63
2023-03-06T05:02:21.437Z,1.60
2023-03-06T05:03:21.533Z,1.61
2023-03-06T05:04:21.634Z,1.64
2023-03-06T05:05:21.781Z,1.66
2023-03-06T05:06:21.937Z,1.72
2023-03-06T05:07:22.086Z,1.68
2023-03-06T05:08:22.227Z,1.74
2023-03-06T05:09:22.368Z,1.71
2023-03-06T05:10:22.497Z,1.76
2023-03-06T05:11:22.626Z,1.75
2023-03-06T05:12:22.773Z,1.69
2023-03-06T05:13:22.945Z,1.65
2023-03-06T05:14:23.090Z,1.65
2023-03-06T05:15:23.231Z,1.67
2023-03-06T05:16:23.427Z,1.68
2023-03-06T05:17:23.562Z,1.71
2023-03-06T05:18:23.714Z,1.69
2023-03-06T05:19:23.859Z,1.70
2023-03-06T05:20:24.005Z,1.75
2023-03-06T05:52:27.724Z,1.54
2023-03-06T05:53:27.844Z,1.45
2023-03-06T05:54:27.949Z,1.33
2023-03-06T05:55:28.048Z,1.29
2023-03-06T05:56:28.153Z,1.37
2023-03-06T06:08:30.013Z,0.99
2023-03-06T06:09:30.184Z,0.91
2023-03-06T06:10:30.358Z,0.91
2023-03-06T06:11:30.501Z,0.90
2023-03-06T06:12:30.666Z,0.90
2023-03-06T06:13:30.825Z,1.01
2023-03-06T06:14:30.983Z,1.14
2023-03-06T06:15:31.206Z,1.07
2023-03-06T06:16:31.284Z,1.10
2023-03-06T06:17:31.423Z,1.18
2023-03-06T06:18:31.552Z,1.32
2023-03-06T06:19:32.088Z,1.41
2023-03-06T06:20:31.844Z,1.38
2023-03-06T06:21:31.944Z,1.47
2023-03-06T06:22:32.055Z,1.49
2023-03-06T06:23:32.167Z,1.51
2023-03-06T06:24:32.304Z,1.49
2023-03-06T06:25:32.419Z,1.42
2023-03-06T06:26:32.501Z,1.36
2023-03-06T06:27:32.673Z,1.42
2023-03-06T06:28:32.718Z,1.50
2023-03-06T06:29:32.844Z,1.58
2023-03-06T06:30:33.001Z,1.45
2023-03-06T06:31:33.185Z,1.41
2023-03-06T06:32:33.204Z,1.29
2023-03-06T06:33:33.310Z,1.34
2023-03-06T06:34:33.442Z,1.18
2023-03-06T06:35:33.566Z,1.24
2023-03-06T06:36:34.463Z,1.33
2023-03-06T06:37:33.796Z,1.42
2023-03-06T06:38:33.931Z,1.44
2023-03-06T06:39:34.047Z,1.46
2023-03-06T06:40:34.174Z,1.48
2023-03-06T06:41:53.121Z,1.51
2023-03-06T06:44:34.550Z,1.57
2023-03-06T06:45:34.644Z,1.61
2023-03-06T06:47:20.411Z,1.55
2023-03-06T06:47:34.866Z,1.61
2023-03-06T06:48:34.954Z,1.70
2023-03-06T06:49:35.036Z,1.73
2023-03-06T06:50:35.176Z,1.81
2023-03-06T06:51:35.233Z,1.88
2023-03-06T06:52:35.310Z,1.99
2023-03-06T06:53:35.401Z,2.01
2023-03-06T06:54:35.510Z,2.04
2023-03-06T06:55:35.578Z,2.04
2023-03-06T06:56:35.657Z,2.07
2023-03-06T06:57:35.727Z,2.13
2023-03-06T06:58:35.809Z,2.21
2023-03-06T06:59:35.890Z,2.21
2023-03-06T07:00:35.958Z,2.24
2023-03-06T07:01:36.151Z,2.32
2023-03-06T07:03:36.313Z,2.50
2023-03-06T07:04:36.427Z,2.56
2023-03-06T07:05:36.541Z,2.62
2023-03-06T07:06:36.780Z,2.66
2023-03-06T07:07:36.874Z,2.70
2023-03-06T07:08:37.071Z,2.75
2023-03-06T07:09:37.290Z,2.81
2023-03-06T07:10:37.516Z,2.89
2023-03-06T07:11:37.737Z,2.94
2023-03-06T07:12:37.939Z,2.97
2023-03-06T07:13:38.129Z,3.02
2023-03-06T07:14:38.337Z,3.08
2023-03-06T07:15:38.599Z,3.14
2023-03-06T07:16:38.632Z,3.19
2023-03-06T07:17:38.751Z,3.26
2023-03-06T07:18:38.867Z,3.32
2023-03-06T07:19:39.620Z,3.39
2023-03-06T07:20:39.106Z,3.43
2023-03-06T07:21:39.207Z,3.47
2023-03-06T07:22:50.393Z,3.48
2023-03-06T07:24:39.465Z,3.55
2023-03-06T07:25:39.544Z,3.58
2023-03-06T07:26:39.599Z,3.57
2023-03-06T07:27:39.776Z,3.59
2023-03-06T07:28:51.661Z,3.63
2023-03-06T07:30:40.548Z,3.70
2023-03-06T07:31:40.026Z,3.72
2023-03-06T07:32:40.056Z,3.77
2023-03-06T07:33:40.071Z,3.81
2023-03-06T07:34:40.153Z,3.83
2023-03-06T07:35:40.225Z,3.81
2023-03-06T07:36:40.287Z,3.84
2023-03-06T07:37:40.352Z,3.87
2023-03-06T07:38:40.410Z,3.93
2023-03-06T07:39:40.483Z,3.98
2023-03-06T07:40:40.540Z,4.03
2023-03-06T07:41:40.593Z,4.09
2023-03-06T07:42:40.659Z,4.14
2023-03-06T07:44:40.790Z,4.16
2023-03-06T07:45:40.847Z,4.20
2023-03-06T07:46:41.196Z,4.22
2023-03-06T07:47:40.979Z,4.26
2023-03-06T07:48:41.050Z,4.30
2023-03-06T07:49:41.109Z,4.31
2023-03-06T07:50:41.249Z,4.30
2023-03-06T07:51:41.260Z,4.27
2023-03-06T07:52:41.295Z,4.29
2023-03-06T07:53:41.362Z,4.27
2023-03-06T07:54:41.435Z,4.26
2023-03-06T07:55:41.487Z,4.27
2023-03-06T07:56:41.592Z,4.29
2023-03-06T07:57:41.620Z,4.33
2023-03-06T07:58:41.671Z,4.38
2023-03-06T07:59:41.721Z,4.41
2023-03-06T08:00:41.784Z,4.43
2023-03-06T08:01:41.853Z,4.44
2023-03-06T08:02:41.974Z,4.42
2023-03-06T08:03:42.009Z,4.44
2023-03-06T08:04:42.022Z,4.44
2023-03-06T08:05:42.084Z,4.45
2023-03-06T08:06:42.126Z,4.47
2023-03-06T08:07:42.189Z,4.48
2023-03-06T08:08:43.057Z,4.54
2023-03-06T08:09:42.291Z,4.56
2023-03-06T08:10:42.342Z,4.60
2023-03-06T08:11:42.410Z,4.61
2023-03-06T08:12:42.449Z,4.65
2023-03-06T08:13:42.494Z,4.68
2023-03-06T08:14:42.581Z,4.68
2023-03-06T08:15:42.603Z,4.71
2023-03-06T08:16:42.701Z,4.74
2023-03-06T08:17:42.711Z,4.78
2023-03-06T08:18:45.076Z,4.82
2023-03-06T08:19:42.914Z,4.86
2023-03-06T08:20:43.055Z,4.90
2023-03-06T08:21:43.207Z,4.92
2023-03-06T08:22:43.354Z,4.94
2023-03-06T08:24:43.550Z,4.92
2023-03-06T08:25:43.611Z,4.89
2023-03-06T08:26:43.668Z,4.88
2023-03-06T08:28:43.799Z,4.86
2023-03-06T08:29:43.840Z,4.90
2023-03-06T08:30:43.915Z,4.77
2023-03-06T08:31:44.022Z,4.64
2023-03-06T09:41:47.732Z,6.35
2023-03-06T10:53:53.626Z,7.83
2023-03-06T11:00:53.305Z,7.81
2023-03-06T11:01:53.393Z,7.84
2023-03-06T11:02:53.439Z,7.88
2023-03-06T11:03:53.509Z,7.94
2023-03-06T11:04:53.627Z,7.90
2023-03-06T11:37:55.744Z,8.50
2023-03-06T11:38:55.753Z,8.48
2023-03-06T11:39:55.780Z,8.47
2023-03-06T11:40:55.827Z,8.46
2023-03-06T11:41:55.848Z,8.45
2023-03-06T11:42:55.902Z,8.43
2023-03-06T11:43:55.939Z,8.43
2023-03-06T11:44:55.978Z,8.43
2023-03-06T11:45:56.031Z,8.40
2023-03-06T11:46:56.093Z,8.47
2023-03-06T11:48:56.129Z,8.47
2023-03-06T11:49:56.165Z,8.51
2023-03-06T11:50:56.217Z,8.50
2023-03-06T11:51:56.245Z,8.53
2023-03-06T11:52:56.277Z,8.59
2023-03-06T11:53:56.310Z,8.59
2023-03-06T11:54:56.356Z,8.59
2023-03-06T11:55:56.383Z,8.61
2023-03-06T11:56:56.420Z,8.58
2023-03-06T11:57:56.453Z,8.57
2023-03-06T11:58:56.481Z,8.65
2023-03-06T11:59:56.524Z,8.62
2023-03-06T12:00:56.569Z,8.62
2023-03-06T12:01:56.659Z,8.61
2023-03-06T12:02:56.656Z,8.65
2023-03-06T12:03:57.908Z,8.69
2023-03-06T12:04:56.834Z,8.68
2023-03-06T12:05:56.879Z,8.69
2023-03-06T12:06:56.928Z,8.77
2023-03-06T12:07:56.982Z,8.79
2023-03-06T12:08:57.042Z,8.76
2023-03-06T12:09:57.132Z,8.68
2023-03-06T12:10:57.218Z,8.71
2023-03-06T12:11:57.287Z,8.68
2023-03-06T12:12:57.358Z,8.65
2023-03-06T12:13:58.321Z,8.68
2023-03-06T12:14:57.528Z,8.77
2023-03-06T12:15:57.581Z,8.83
2023-03-06T12:16:57.673Z,8.92
2023-03-06T12:17:57.735Z,9.03
2023-03-06T12:18:57.785Z,9.06
2023-03-06T12:19:57.814Z,9.07
2023-03-06T12:20:57.869Z,9.01
2023-03-06T12:21:58.113Z,8.99
2023-03-06T12:23:14.206Z,9.04
2023-03-06T12:24:57.967Z,9.02
2023-03-06T12:25:57.969Z,8.98
2023-03-06T12:26:58.598Z,8.92
2023-03-06T12:27:57.980Z,8.95
2023-03-06T12:28:57.984Z,9.09
2023-03-06T12:29:58.002Z,9.19
2023-03-06T12:30:57.977Z,9.34
2023-03-06T12:31:58.051Z,9.44
2023-03-06T12:32:57.952Z,9.52
2023-03-06T12:33:57.933Z,9.49
2023-03-06T12:34:57.927Z,9.56
2023-03-06T12:35:57.951Z,9.54
2023-03-06T12:36:57.887Z,9.47
2023-03-06T12:37:57.886Z,9.45
2023-03-06T12:38:57.891Z,9.54
2023-03-06T12:39:57.927Z,9.64
2023-03-06T12:40:57.912Z,9.61
2023-03-06T13:40:58.655Z,10.23
2023-03-06T13:41:58.745Z,10.27
2023-03-06T13:42:58.656Z,10.28
2023-03-06T13:43:58.655Z,10.28
2023-03-06T13:44:58.640Z,10.22
2023-03-06T13:45:58.706Z,10.24
2023-03-06T13:46:58.646Z,10.27
2023-03-06T13:49:58.603Z,10.32
2023-03-06T13:51:58.584Z,10.22
2023-03-06T19:17:03.269Z,7.07
2023-03-06T19:18:03.435Z,7.07
2023-03-06T19:19:03.528Z,7.07
2023-03-06T19:20:03.586Z,7.08
2023-03-06T19:21:03.653Z,7.09
2023-03-06T19:22:03.701Z,7.10
2023-03-06T19:23:03.761Z,7.12
2023-03-06T19:24:03.810Z,7.15
2023-03-06T19:25:04.064Z,7.12
2023-03-06T19:26:03.921Z,7.09
2023-03-06T19:27:03.974Z,7.07
2023-03-06T19:28:04.013Z,7.07
2023-03-06T19:29:04.049Z,7.08
2023-03-06T19:30:04.094Z,7.07
2023-03-06T19:31:04.163Z,7.02
2023-03-06T19:32:04.372Z,7.03
2023-03-06T19:33:04.296Z,7.04
2023-03-06T19:34:04.372Z,7.06
2023-03-06T19:35:04.421Z,7.03
2023-03-06T19:36:04.492Z,6.99
2023-03-06T19:37:04.583Z,6.83
2023-03-06T19:38:04.691Z,6.79
2023-03-06T19:39:04.792Z,6.78
2023-03-06T19:40:04.881Z,6.76
2023-03-06T19:41:04.963Z,6.78
2023-03-06T19:42:05.074Z,6.76
2023-03-06T19:43:05.133Z,6.78
2023-03-06T19:44:05.206Z,6.80
2023-03-06T19:45:05.263Z,6.83
2023-03-06T19:46:05.497Z,6.85
2023-03-06T19:47:05.397Z,6.84
2023-03-06T19:48:05.489Z,6.83
2023-03-06T19:49:05.533Z,6.84
2023-03-06T19:50:05.599Z,6.84
2023-03-06T19:51:05.676Z,6.84
2023-03-06T19:52:05.744Z,6.85
2023-03-06T19:53:05.826Z,6.81
2023-03-06T19:54:05.926Z,6.79
2023-03-06T19:55:05.999Z,6.79
2023-03-06T19:56:06.086Z,6.79
2023-03-06T19:57:06.143Z,6.79
2023-03-06T19:58:06.221Z,6.77
2023-03-06T19:59:06.296Z,6.77
2023-03-06T20:00:06.378Z,6.78
2023-03-06T20:01:06.492Z,6.75
2023-03-06T20:02:06.520Z,6.74
2023-03-06T20:03:06.609Z,6.69
2023-03-06T20:04:06.749Z,6.63
2023-03-06T20:05:09.171Z,6.64
2023-03-06T20:06:06.932Z,6.67
2023-03-06T20:07:07.025Z,6.67
2023-03-06T20:08:07.180Z,6.65
2023-03-06T20:09:07.233Z,6.62
2023-03-06T20:10:07.288Z,6.58
2023-03-06T20:11:07.385Z,6.56
2023-03-06T20:12:08.370Z,6.57
2023-03-06T20:13:07.557Z,6.56
2023-03-06T20:14:07.710Z,6.58
2023-03-06T20:15:07.709Z,6.59
2023-03-06T20:16:07.798Z,6.58
2023-03-06T20:17:07.837Z,6.60
2023-03-06T20:18:07.884Z,6.58
2023-03-06T20:19:07.959Z,6.60
2023-03-06T20:20:08.030Z,6.61
2023-03-06T20:21:08.091Z,6.61
2023-03-06T20:22:08.120Z,6.59
2023-03-06T20:23:08.170Z,6.57
2023-03-06T20:24:08.221Z,6.58
2023-03-06T20:25:08.293Z,6.61
2023-03-06T20:26:08.299Z,6.61
2023-03-06T20:27:08.349Z,6.61
2023-03-06T20:28:08.398Z,6.61
2023-03-06T20:29:08.421Z,6.62
2023-03-06T20:30:08.482Z,6.61
2023-03-06T20:31:08.498Z,6.63
2023-03-06T20:32:08.536Z,6.64
2023-03-06T20:33:08.567Z,6.66
2023-03-06T20:34:08.612Z,6.64
2023-03-06T20:35:08.665Z,6.63
2023-03-06T20:36:08.746Z,6.63
2023-03-06T20:37:08.750Z,6.63
2023-03-06T20:38:08.805Z,6.60
2023-03-06T20:39:08.931Z,6.52
2023-03-06T20:40:09.014Z,6.49
2023-03-06T20:41:09.090Z,6.48
2023-03-06T20:42:09.176Z,6.48
2023-03-06T20:43:09.274Z,6.47
2023-03-06T20:44:09.351Z,6.47
2023-03-06T20:45:09.444Z,6.45
2023-03-06T20:46:09.602Z,6.44
2023-03-06T20:47:09.656Z,6.38
2023-03-06T20:48:09.742Z,6.31
2023-03-06T20:49:09.830Z,6.30
2023-03-06T20:50:09.947Z,6.29
2023-03-06T20:51:10.049Z,6.32
2023-03-06T20:52:10.156Z,6.34
2023-03-06T20:53:10.341Z,6.36
2023-03-06T20:54:10.319Z,6.36
2023-03-06T20:55:10.406Z,6.37
2023-03-06T20:56:10.465Z,6.37
2023-03-06T20:57:10.524Z,6.30
2023-03-06T20:58:10.584Z,6.31
2023-03-06T20:59:10.657Z,6.30
2023-03-06T21:00:10.728Z,6.27
2023-03-06T21:01:10.806Z,6.28
2023-03-06T21:02:10.893Z,6.29
2023-03-06T21:03:10.985Z,6.29
2023-03-06T21:04:11.090Z,6.29
2023-03-06T21:05:11.244Z,6.28
2023-03-06T21:16:12.090Z,6.13
2023-03-06T21:29:13.296Z,5.94
2023-03-06T21:30:13.478Z,5.90
2023-03-06T21:31:13.634Z,5.88
2023-03-06T21:32:13.783Z,5.87
2023-03-06T21:33:13.995Z,5.89
2023-03-06T21:35:14.431Z,5.85
2023-03-06T21:36:14.635Z,5.86
2023-03-06T21:37:14.834Z,5.85
2023-03-06T21:38:15.042Z,5.84
2023-03-06T21:39:15.258Z,5.81
2023-03-06T21:40:15.456Z,5.82
2023-03-06T21:41:15.664Z,5.83
2023-03-06T21:42:15.880Z,5.82
2023-03-06T21:43:16.109Z,5.80
2023-03-06T21:44:16.272Z,5.78
2023-03-06T21:45:16.471Z,5.75
2023-03-06T21:46:16.712Z,5.72
2023-03-06T21:47:16.865Z,5.71
2023-03-06T21:48:16.996Z,5.71
2023-03-06T21:49:17.168Z,5.69
2023-03-06T21:50:17.352Z,5.69
2023-03-06T21:51:17.534Z,5.66
2023-03-06T21:52:17.608Z,5.63
2023-03-06T21:53:17.694Z,5.60
2023-03-06T21:54:17.800Z,5.59
2023-03-06T21:55:17.872Z,5.61
2023-03-06T21:56:17.947Z,5.63
2023-03-06T21:57:18.036Z,5.62
2023-03-06T21:58:18.130Z,5.56
2023-03-06T21:59:18.230Z,5.49
2023-03-06T22:00:18.320Z,5.43
2023-03-06T22:01:18.446Z,5.43
2023-03-06T22:02:18.509Z,5.41
2023-03-06T22:03:18.614Z,5.42
2023-03-06T22:04:18.769Z,5.43
2023-03-06T22:05:18.819Z,5.41
2023-03-06T22:06:18.927Z,5.37
2023-03-06T22:07:19.022Z,5.36
2023-03-06T22:08:19.206Z,5.39
2023-03-06T22:09:19.304Z,5.42
2023-03-06T22:12:19.614Z,5.44
2023-03-06T22:13:19.717Z,5.42
2023-03-06T22:14:19.816Z,5.37
2023-03-06T22:15:19.925Z,5.35
2023-03-06T22:17:20.122Z,5.22
2023-03-06T22:18:20.220Z,5.21
2023-03-06T22:19:20.305Z,5.25
2023-03-06T22:20:20.403Z,5.27
2023-03-06T22:21:20.514Z,5.27
2023-03-06T22:55:23.345Z,4.87
2023-03-06T22:56:23.438Z,4.84
2023-03-06T22:57:23.531Z,4.80
2023-03-06T22:58:23.608Z,4.77
2023-03-06T22:59:23.712Z,4.74
2023-03-06T23:00:23.838Z,4.70
2023-03-06T23:01:23.866Z,4.62
2023-03-06T23:02:23.894Z,4.61
2023-03-06T23:03:23.947Z,4.62
2023-03-06T23:05:24.071Z,4.66
2023-03-06T23:06:24.132Z,4.70
2023-03-06T23:07:24.197Z,4.71
2023-03-06T23:08:24.293Z,4.71
2023-03-06T23:09:24.359Z,4.67
2023-03-06T23:10:24.418Z,4.65
2023-03-06T23:11:24.468Z,4.65
2023-03-06T23:12:24.532Z,4.65
2023-03-06T23:13:24.589Z,4.63
2023-03-06T23:14:24.674Z,4.63
2023-03-06T23:15:24.849Z,4.62
2023-03-06T23:16:24.777Z,4.61
2023-03-06T23:17:24.866Z,4.57
2023-03-06T23:18:24.932Z,4.49
2023-03-06T23:19:24.989Z,4.49
2023-03-06T23:21:25.294Z,4.47
2023-03-06T23:22:25.210Z,4.47
